Latest Weather Observations for Spitfire Channel

IDQ60901

Issued at 4:11 am EST Thursday 19 October 2017 (issued every 10 minutes, with the page automatically refreshed every 10 minutes)

About weather observations | Map of Brisbane area stations | Latest observations for Brisbane area | Other Formats
Station Details ID: 040927 Name: SPITFIRE CHANNEL BEACON Lat: -27.05 Lon: 153.27 Height: 7.0 m
Data from the previous 72 hours. | See also: Recent months for locations in Queensland
Date/Time
EST
Temp
°C
App
Temp
°C
Dew
Point
°C
Rel
Hum
%
Delta-T
°C
Wind Press
QNH
hPa
Press
MSL
hPa
Rain since
9am
mm
Dir  Spd
km/h
Gust
km/h
Spd
kts
Gust
kts
19/04:00am - - - - - E 28 33 15 18 - - -
19/03:30am - - - - - E 28 32 15 17 - - -
19/03:00am - - - - - E 28 35 15 19 - - -
19/02:30am - - - - - E 26 30 14 16 - - -
19/02:00am - - - - - E 28 35 15 19 - - -
19/01:30am - - - - - E 28 33 15 18 - - -
19/01:00am - - - - - E 30 35 16 19 - - -
19/12:30am - - - - - E 32 37 17 20 - - -
19/12:00am - - - - - E 26 32 14 17 - - -
 
Date/Time
EST
Temp
°C
App
Temp
°C
Dew
Point
°C
Rel
Hum
%
Delta-T
°C
Wind Press
QNH
hPa
Press
MSL
hPa
Rain since
9am
mm
Dir  Spd
km/h
Gust
km/h
Spd
kts
Gust
kts
18/11:30pm - - - - - E 32 39 17 21 - - -
18/11:00pm - - - - - E 30 35 16 19 - - -
18/10:30pm - - - - - E 30 35 16 19 - - -
18/10:00pm - - - - - E 33 39 18 21 - - -
18/09:30pm - - - - - E 28 35 15 19 - - -
18/09:00pm - - - - - E 30 35 16 19 - - -
18/08:30pm - - - - - E 33 39 18 21 - - -
18/08:00pm - - - - - E 35 41 19 22 - - -
18/07:30pm - - - - - E 33 39 18 21 - - -
18/07:00pm - - - - - E 30 41 16 22 - - -
18/06:30pm - - - - - E 32 39 17 21 - - -
18/06:00pm - - - - - E 30 39 16 21 - - -
18/05:30pm - - - - - E 32 35 17 19 - - -
18/05:00pm - - - - - E 33 39 18 21 - - -
18/04:30pm - - - - - E 32 39 17 21 - - -
18/04:00pm - - - - - ESE 32 39 17 21 - - -
18/03:30pm - - - - - ESE 33 41 18 22 - - -
18/03:00pm - - - - - E 37 44 20 24 - - -
18/02:30pm - - - - - E 33 41 18 22 - - -
18/02:00pm - - - - - E 37 44 20 24 - - -
18/01:30pm - - - - - E 35 41 19 22 - - -
18/01:00pm - - - - - E 35 43 19 23 - - -
18/12:30pm - - - - - E 35 41 19 22 - - -
18/12:00pm - - - - - E 33 41 18 22 - - -
18/11:30am - - - - - E 37 43 20 23 - - -
18/11:00am - - - - - E 32 37 17 20 - - -
18/10:30am - - - - - E 35 43 19 23 - - -
18/10:00am - - - - - E 32 43 17 23 - - -
18/09:30am - - - - - E 37 48 20 26 - - -
18/09:00am - - - - - E 35 43 19 23 - - -
18/08:30am - - - - - E 37 44 20 24 - - -
18/08:00am - - - - - E 37 46 20 25 - - -
18/07:30am - - - - - E 41 50 22 27 - - -
18/07:00am - - - - - E 37 50 20 27 - - -
18/06:30am - - - - - E 35 46 19 25 - - -
18/06:00am - - - - - E 35 50 19 27 - - -
18/05:30am - - - - - E 37 46 20 25 - - -
18/05:00am - - - - - E 37 48 20 26 - - -
18/04:30am - - - - - E 39 46 21 25 - - -
18/04:00am - - - - - E 37 46 20 25 - - -
18/03:30am - - - - - E 35 43 19 23 - - -
18/03:00am - - - - - E 37 43 20 23 - - -
18/02:30am - - - - - E 37 44 20 24 - - -
18/02:00am - - - - - E 39 46 21 25 - - -
18/01:30am - - - - - E 37 43 20 23 - - -
18/01:00am - - - - - E 39 48 21 26 - - -
18/12:30am - - - - - ESE 37 46 20 25 - - -
18/12:00am - - - - - ESE 35 44 19 24 - - -
 
Date/Time
EST
Temp
°C
App
Temp
°C
Dew
Point
°C
Rel
Hum
%
Delta-T
°C
Wind Press
QNH
hPa
Press
MSL
hPa
Rain since
9am
mm
Dir  Spd
km/h
Gust
km/h
Spd
kts
Gust
kts
17/11:30pm - - - - - E 37 46 20 25 - - -
17/11:00pm - - - - - E 37 43 20 23 - - -
17/10:30pm - - - - - E 37 44 20 24 - - -
17/10:00pm - - - - - E 37 46 20 25 - - -
17/09:30pm - - - - - E 33 43 18 23 - - -
17/09:00pm - - - - - ESE 39 46 21 25 - - -
17/08:30pm - - - - - E 33 44 18 24 - - -
17/08:00pm - - - - - ESE 33 43 18 23 - - -
17/07:30pm - - - - - E 37 48 20 26 - - -
17/07:00pm - - - - - E 41 50 22 27 - - -
17/06:30pm - - - - - ESE 35 50 19 27 - - -
17/06:00pm - - - - - E 39 48 21 26 - - -
17/05:30pm - - - - - E 39 48 21 26 - - -
17/05:00pm - - - - - E 37 46 20 25 - - -
17/04:30pm - - - - - E 39 48 21 26 - - -
17/04:00pm - - - - - E 35 44 19 24 - - -
17/03:30pm - - - - - E 35 41 19 22 - - -
17/03:00pm - - - - - E 30 37 16 20 - - -
17/02:30pm - - - - - E 32 43 17 23 - - -
17/02:00pm - - - - - E 39 50 21 27 - - -
17/01:30pm - - - - - ENE 33 43 18 23 - - -
17/01:26pm - - - - - E 37 43 20 23 - - -
17/01:00pm - - - - - E 41 48 22 26 - - -
17/12:30pm - - - - - E 39 50 21 27 - - -
17/12:00pm - - - - - E 41 50 22 27 - - -
17/11:30am - - - - - E 37 44 20 24 - - -
17/11:00am - - - - - E 43 54 23 29 - - -
17/10:30am - - - - - E 37 46 20 25 - - -
17/10:00am - - - - - E 41 52 22 28 - - -
17/09:30am - - - - - E 37 50 20 27 - - -
17/09:00am - - - - - E 39 48 21 26 - - -
17/08:30am - - - - - ESE 43 57 23 31 - - -
17/08:00am - - - - - ESE 43 52 23 28 - - -
17/07:30am - - - - - E 41 50 22 27 - - -
17/07:00am - - - - - E 33 46 18 25 - - -
17/06:30am - - - - - E 37 52 20 28 - - -
17/06:12am - - - - - E 35 57 19 31 - - -
17/06:00am - - - - - E 41 56 22 30 - - -
17/05:42am - - - - - E 39 57 21 31 - - -
17/05:30am - - - - - ESE 41 48 22 26 - - -
17/05:00am - - - - - E 39 50 21 27 - - -
17/04:30am - - - - - E 39 46 21 25 - - -
17/04:00am - - - - - E 41 56 22 30 - - -
17/03:37am - - - - - E 46 65 25 35 - - -
17/03:30am - - - - - ESE 41 56 22 30 - - -
17/03:00am - - - - - ESE 39 50 21 27 - - -
17/02:30am - - - - - E 43 52 23 28 - - -
17/02:00am - - - - - E 44 54 24 29 - - -
17/01:30am - - - - - E 41 48 22 26 - - -
17/01:00am - - - - - E 41 48 22 26 - - -
17/12:30am - - - - - E 39 46 21 25 - - -
17/12:00am - - - - - ESE 41 54 22 29 - - -
 
Date/Time
EST
Temp
°C
App
Temp
°C
Dew
Point
°C
Rel
Hum
%
Delta-T
°C
Wind Press
QNH
hPa
Press
MSL
hPa
Rain since
9am
mm
Dir  Spd
km/h
Gust
km/h
Spd
kts
Gust
kts
16/11:30pm - - - - - E 39 50 21 27 - - -
16/11:00pm - - - - - E 37 44 20 24 - - -
16/10:30pm - - - - - E 37 44 20 24 - - -
16/10:00pm - - - - - E 39 46 21 25 - - -
16/09:30pm - - - - - E 37 44 20 24 - - -
16/09:00pm - - - - - E 35 48 19 26 - - -
16/08:30pm - - - - - E 33 43 18 23 - - -
16/08:00pm - - - - - E 37 46 20 25 - - -
16/07:30pm - - - - - E 39 50 21 27 - - -
16/07:00pm - - - - - ESE 35 43 19 23 - - -
16/06:30pm - - - - - ESE 37 44 20 24 - - -
16/06:00pm - - - - - ESE 35 46 19 25 - - -
16/05:30pm - - - - - ESE 37 50 20 27 - - -
16/05:00pm - - - - - ESE 39 48 21 26 - - -
16/04:30pm - - - - - ESE 35 43 19 23 - - -
16/04:00pm - - - - - ESE 41 48 22 26 - - -
16/03:30pm - - - - - ESE 39 50 21 27 - - -
16/03:00pm - - - - - ESE 39 50 21 27 - - -
16/02:30pm - - - - - ESE 41 50 22 27 - - -
16/02:00pm - - - - - ESE 41 46 22 25 - - -
16/01:30pm - - - - - ESE 35 43 19 23 - - -
16/01:00pm - - - - - E 35 46 19 25 - - -
16/12:30pm - - - - - ESE 41 52 22 28 - - -
16/12:00pm - - - - - ESE 41 48 22 26 - - -
16/11:30am - - - - - ESE 43 50 23 27 - - -
16/11:00am - - - - - ESE 41 52 22 28 - - -
16/10:30am - - - - - E 44 54 24 29 - - -
16/10:00am - - - - - ESE 43 50 23 27 - - -
16/09:30am - - - - - ESE 43 52 23 28 - - -
16/09:00am - - - - - E 46 61 25 33 - - -
16/08:51am - - - - - E 43 61 23 33 - - -
16/08:30am - - - - - ESE 37 44 20 24 - - -
16/08:00am - - - - - E 35 43 19 23 - - -
16/07:30am - - - - - E 37 48 20 26 - - -
16/07:00am - - - - - E 37 44 20 24 - - -
16/06:30am - - - - - E 37 44 20 24 - - -
16/06:00am - - - - - E 39 48 21 26 - - -
16/05:30am - - - - - E 35 46 19 25 - - -
16/05:00am - - - - - E 33 41 18 22 - - -
16/04:30am - - - - - E 33 41 18 22 - - -

Latest Capital City Observations: Canberra | Sydney | Melbourne | Brisbane | Adelaide | Perth | Hobart | Darwin

Other Formats:

Comma delimited format used in spreadsheet applications
http://www.bom.gov.au/fwo/IDQ60901/IDQ60901.94581.axf

JavaScript Object Notation format (JSON) in row-major order
http://www.bom.gov.au/fwo/IDQ60901/IDQ60901.94581.json